South Holland, Illinois
Current Conditions -  °F | °C
As of 3:55 AM on Saturday 25 Oct 2014 (Local Time) from KIGQ Reporting Station
Scattered Clouds Scattered Clouds  
Wind Chill: 54°   Ceiling: Unl
Heat Index: 54°   Visibility: 7mi
Dew Point: 52°   Wind: 7mph
Humidity: 93%   Direction: 230°SW
Pressure: 29.9"   Gusts: NA
Location:  41.6°N, 87.61°W
Report Text: KIGQ 250855Z AUTO 23006KT 7SM SCT032 12/11 A2990 RMK AO2 T01200109
Loading
Personal Weather Stations






























Interactive Weather Map
Tropical Storm Tracking
New forecast layout! Learn more

10-Day Weather Forecast

Advertisements
Track Severe Weather on mobile